sensor_id;sensor_type;location;lat;lon;timestamp;pressure;altitude;pressure_sealevel;temperature;humidity
62680;BME280;68213;40.528;44.712;2023-05-31T00:00:41;80625.72;;;10.90;71.64
62680;BME280;68213;40.528;44.712;2023-05-31T00:01:42;80624.03;;;10.83;72.17
62680;BME280;68213;40.528;44.712;2023-05-31T00:02:42;80604.06;;;10.54;72.94
62680;BME280;68213;40.528;44.712;2023-05-31T00:03:45;80622.94;;;10.50;74.19
62680;BME280;68213;40.528;44.712;2023-05-31T00:04:46;80635.41;;;10.50;74.35
62680;BME280;68213;40.528;44.712;2023-05-31T00:05:49;80630.03;;;10.47;73.68
62680;BME280;68213;40.528;44.712;2023-05-31T00:06:49;80634.16;;;10.39;74.19
62680;BME280;68213;40.528;44.712;2023-05-31T00:07:50;80635.41;;;10.38;74.24
62680;BME280;68213;40.528;44.712;2023-05-31T00:08:51;80627.97;;;10.34;74.02
62680;BME280;68213;40.528;44.712;2023-05-31T00:09:51;80617.00;;;10.26;74.02
62680;BME280;68213;40.528;44.712;2023-05-31T00:10:52;80626.84;;;10.25;74.01
62680;BME280;68213;40.528;44.712;2023-05-31T00:11:53;80625.59;;;10.26;74.05
62680;BME280;68213;40.528;44.712;2023-05-31T00:12:53;80624.78;;;10.24;73.79
62680;BME280;68213;40.528;44.712;2023-05-31T00:13:54;80625.47;;;10.24;73.86
62680;BME280;68213;40.528;44.712;2023-05-31T00:14:55;80622.72;;;10.22;73.85
62680;BME280;68213;40.528;44.712;2023-05-31T00:15:55;80564.28;;;9.74;74.05
62680;BME280;68213;40.528;44.712;2023-05-31T00:16:56;80619.88;;;10.18;74.06
62680;BME280;68213;40.528;44.712;2023-05-31T00:17:57;80626.97;;;10.15;73.91
62680;BME280;68213;40.528;44.712;2023-05-31T00:18:58;80621.59;;;10.13;73.94
62680;BME280;68213;40.528;44.712;2023-05-31T00:19:59;80620.81;;;10.11;73.89
62680;BME280;68213;40.528;44.712;2023-05-31T00:20:59;80629.34;;;10.11;73.64
62680;BME280;68213;40.528;44.712;2023-05-31T00:22:00;80619.31;;;10.08;73.45
62680;BME280;68213;40.528;44.712;2023-05-31T00:23:01;80626.38;;;10.05;73.48
62680;BME280;68213;40.528;44.712;2023-05-31T00:24:02;80622.28;;;10.02;73.54
62680;BME280;68213;40.528;44.712;2023-05-31T00:25:03;80597.97;;;9.78;73.73
62680;BME280;68213;40.528;44.712;2023-05-31T00:26:04;80624.34;;;9.92;73.86
62680;BME280;68213;40.528;44.712;2023-05-31T00:27:07;80624.34;;;9.92;73.98
62680;BME280;68213;40.528;44.712;2023-05-31T00:28:07;80610.97;;;9.76;74.17
62680;BME280;68213;40.528;44.712;2023-05-31T00:29:08;80625.13;;;9.82;74.37
62680;BME280;68213;40.528;44.712;2023-05-31T00:30:27;80612.00;;;9.71;74.32
62680;BME280;68213;40.528;44.712;2023-05-31T00:31:49;80635.75;;;9.84;74.30
62680;BME280;68213;40.528;44.712;2023-05-31T00:33:09;80636.31;;;9.83;74.32
62680;BME280;68213;40.528;44.712;2023-05-31T00:34:29;80635.06;;;9.84;74.01
62680;BME280;68213;40.528;44.712;2023-05-31T00:35:30;80627.09;;;9.82;73.98
62680;BME280;68213;40.528;44.712;2023-05-31T00:36:33;80627.63;;;9.80;74.08
62680;BME280;68213;40.528;44.712;2023-05-31T00:37:33;80635.28;;;9.76;74.34
62680;BME280;68213;40.528;44.712;2023-05-31T00:38:37;80603.91;;;9.55;74.84
62680;BME280;68213;40.528;44.712;2023-05-31T00:39:38;80642.25;;;9.72;75.78
62680;BME280;68213;40.528;44.712;2023-05-31T00:40:39;80637.56;;;9.70;76.36
62680;BME280;68213;40.528;44.712;2023-05-31T00:41:40;80640.75;;;9.68;76.04
62680;BME280;68213;40.528;44.712;2023-05-31T00:42:40;80642.59;;;9.66;74.93
62680;BME280;68213;40.528;44.712;2023-05-31T00:43:41;80642.47;;;9.64;75.02
62680;BME280;68213;40.528;44.712;2023-05-31T00:44:42;80643.16;;;9.64;74.63
62680;BME280;68213;40.528;44.712;2023-05-31T00:45:43;80637.91;;;9.64;74.84
62680;BME280;68213;40.528;44.712;2023-05-31T00:46:44;80642.47;;;9.64;75.12
62680;BME280;68213;40.528;44.712;2023-05-31T00:47:44;80652.97;;;9.64;75.10
62680;BME280;68213;40.528;44.712;2023-05-31T00:48:46;80646.44;;;9.65;75.61
62680;BME280;68213;40.528;44.712;2023-05-31T00:49:47;80647.59;;;9.62;75.87
62680;BME280;68213;40.528;44.712;2023-05-31T00:50:48;80639.72;;;9.62;75.69
62680;BME280;68213;40.528;44.712;2023-05-31T00:51:50;80640.31;;;9.60;76.14
62680;BME280;68213;40.528;44.712;2023-05-31T00:52:53;80640.19;;;9.58;76.28
62680;BME280;68213;40.528;44.712;2023-05-31T00:53:56;80642.94;;;9.60;75.43
62680;BME280;68213;40.528;44.712;2023-05-31T00:54:58;80640.97;;;9.61;75.57
62680;BME280;68213;40.528;44.712;2023-05-31T00:55:59;80621.09;;;9.46;75.51
62680;BME280;68213;40.528;44.712;2023-05-31T00:57:00;80639.84;;;9.64;75.33
62680;BME280;68213;40.528;44.712;2023-05-31T00:58:02;80641.09;;;9.63;75.16
62680;BME280;68213;40.528;44.712;2023-05-31T00:59:02;80637.22;;;9.64;74.77
62680;BME280;68213;40.528;44.712;2023-05-31T01:00:04;80641.66;;;9.61;74.62
62680;BME280;68213;40.528;44.712;2023-05-31T01:01:07;80643.59;;;9.61;74.58
62680;BME280;68213;40.528;44.712;2023-05-31T01:02:10;80619.75;;;9.45;74.58
62680;BME280;68213;40.528;44.712;2023-05-31T01:03:11;80637.78;;;9.62;74.47
62680;BME280;68213;40.528;44.712;2023-05-31T01:04:13;80644.84;;;9.60;74.29
62680;BME280;68213;40.528;44.712;2023-05-31T01:05:14;80644.28;;;9.61;74.17
62680;BME280;68213;40.528;44.712;2023-05-31T01:06:18;80642.94;;;9.60;74.14
62680;BME280;68213;40.528;44.712;2023-05-31T01:07:19;80649.44;;;9.59;73.99
62680;BME280;68213;40.528;44.712;2023-05-31T01:08:20;80622.25;;;9.43;74.41
62680;BME280;68213;40.528;44.712;2023-05-31T01:09:22;80644.72;;;9.58;74.46
62680;BME280;68213;40.528;44.712;2023-05-31T01:10:23;80639.47;;;9.58;74.42
62680;BME280;68213;40.528;44.712;2023-05-31T01:13:12;80618.91;;;9.42;74.42
62680;BME280;68213;40.528;44.712;2023-05-31T01:16:22;80641.09;;;9.51;74.81
62680;BME280;68213;40.528;44.712;2023-05-31T01:17:17;80647.00;;;9.51;74.80
62680;BME280;68213;40.528;44.712;2023-05-31T01:18:31;80648.38;;;9.52;74.66
62680;BME280;68213;40.528;44.712;2023-05-31T01:19:44;80640.38;;;9.50;74.29
62680;BME280;68213;40.528;44.712;2023-05-31T01:20:49;80646.47;;;9.53;74.46
62680;BME280;68213;40.528;44.712;2023-05-31T01:22:02;80648.50;;;9.55;74.57
62680;BME280;68213;40.528;44.712;2023-05-31T01:27:22;80637.78;;;9.62;74.33
62680;BME280;68213;40.528;44.712;2023-05-31T01:28:25;80637.78;;;9.62;74.33
62680;BME280;68213;40.528;44.712;2023-05-31T01:29:27;80640.84;;;9.59;74.03
62680;BME280;68213;40.528;44.712;2023-05-31T01:30:29;80644.84;;;9.60;73.90
62680;BME280;68213;40.528;44.712;2023-05-31T01:31:34;80638.69;;;9.55;74.07
62680;BME280;68213;40.528;44.712;2023-05-31T01:32:36;80627.50;;;9.43;74.26
62680;BME280;68213;40.528;44.712;2023-05-31T01:33:38;80648.03;;;9.46;74.79
62680;BME280;68213;40.528;44.712;2023-05-31T01:34:44;80646.78;;;9.47;74.51
62680;BME280;68213;40.528;44.712;2023-05-31T01:35:44;80644.84;;;9.48;74.16
62680;BME280;68213;40.528;44.712;2023-05-31T01:36:45;80646.88;;;9.49;74.11
62680;BME280;68213;40.528;44.712;2023-05-31T01:37:46;80646.88;;;9.49;74.13
62680;BME280;68213;40.528;44.712;2023-05-31T01:38:47;80647.59;;;9.50;74.23
62680;BME280;68213;40.528;44.712;2023-05-31T01:39:48;80622.22;;;9.31;74.09
62680;BME280;68213;40.528;44.712;2023-05-31T01:40:49;80648.72;;;9.47;74.33
62680;BME280;68213;40.528;44.712;2023-05-31T01:41:50;80645.53;;;9.48;74.29
62680;BME280;68213;40.528;44.712;2023-05-31T01:42:54;80649.41;;;9.47;74.53
62680;BME280;68213;40.528;44.712;2023-05-31T01:43:56;80644.03;;;9.45;74.66
62680;BME280;68213;40.528;44.712;2023-05-31T01:44:57;80646.00;;;9.45;74.38
62680;BME280;68213;40.528;44.712;2023-05-31T01:46:00;80619.47;;;9.29;74.43
62680;BME280;68213;40.528;44.712;2023-05-31T01:47:01;80647.56;;;9.38;74.55
62680;BME280;68213;40.528;44.712;2023-05-31T01:48:05;80643.56;;;9.37;74.71
62680;BME280;68213;40.528;44.712;2023-05-31T01:49:06;80646.19;;;9.37;74.84
62680;BME280;68213;40.528;44.712;2023-05-31T01:50:09;80647.34;;;9.34;75.07
62680;BME280;68213;40.528;44.712;2023-05-31T01:51:11;80624.38;;;9.23;74.88
62680;BME280;68213;40.528;44.712;2023-05-31T01:52:15;80642.31;;;9.38;75.04
62680;BME280;68213;40.528;44.712;2023-05-31T01:53:16;80642.31;;;9.38;75.13
62680;BME280;68213;40.528;44.712;2023-05-31T01:54:17;80634.31;;;9.36;75.10
62680;BME280;68213;40.528;44.712;2023-05-31T01:55:18;80641.88;;;9.42;75.19
62680;BME280;68213;40.528;44.712;2023-05-31T01:56:20;80642.00;;;9.44;75.63
62680;BME280;68213;40.528;44.712;2023-05-31T01:57:22;80640.03;;;9.44;75.55
62680;BME280;68213;40.528;44.712;2023-05-31T01:58:24;80616.75;;;9.27;75.12
62680;BME280;68213;40.528;44.712;2023-05-31T01:59:25;80623.59;;;9.32;75.00
62680;BME280;68213;40.528;44.712;2023-05-31T02:00:27;80639.25;;;9.42;75.23
62680;BME280;68213;40.528;44.712;2023-05-31T02:01:29;80637.06;;;9.38;75.16
62680;BME280;68213;40.528;44.712;2023-05-31T02:02:30;80637.75;;;9.39;75.07
62680;BME280;68213;40.528;44.712;2023-05-31T02:03:31;80644.94;;;9.38;75.08
62680;BME280;68213;40.528;44.712;2023-05-31T02:04:32;80642.31;;;9.38;75.00
62680;BME280;68213;40.528;44.712;2023-05-31T02:05:33;80635.00;;;9.36;75.17
62680;BME280;68213;40.528;44.712;2023-05-31T02:06:37;80641.41;;;9.45;74.92
62680;BME280;68213;40.528;44.712;2023-05-31T02:07:41;80642.91;;;9.48;74.92
62680;BME280;68213;40.528;44.712;2023-05-31T02:08:42;80634.59;;;9.52;74.75
62680;BME280;68213;40.528;44.712;2023-05-31T02:09:43;80637.75;;;9.50;74.45
62680;BME280;68213;40.528;44.712;2023-05-31T02:10:44;80631.38;;;9.53;74.44
62680;BME280;68213;40.528;44.712;2023-05-31T02:11:44;80628.88;;;9.56;74.33
62680;BME280;68213;40.528;44.712;2023-05-31T02:12:45;80630.94;;;9.57;74.27
62680;BME280;68213;40.528;44.712;2023-05-31T02:13:46;80643.59;;;9.61;74.06
62680;BME280;68213;40.528;44.712;2023-05-31T02:14:46;80637.78;;;9.62;73.78
62680;BME280;68213;40.528;44.712;2023-05-31T02:15:47;80637.22;;;9.64;73.73
62680;BME280;68213;40.528;44.712;2023-05-31T02:16:48;80631.97;;;9.64;73.41
62680;BME280;68213;40.528;44.712;2023-05-31T02:17:51;80589.50;;;9.32;73.53
62680;BME280;68213;40.528;44.712;2023-05-31T02:18:55;80636.19;;;9.69;73.23
62680;BME280;68213;40.528;44.712;2023-05-31T02:19:56;80631.63;;;9.69;72.92
62680;BME280;68213;40.528;44.712;2023-05-31T02:20:57;80633.69;;;9.71;72.78
62680;BME280;68213;40.528;44.712;2023-05-31T02:21:59;80638.50;;;9.75;72.75
62680;BME280;68213;40.528;44.712;2023-05-31T02:23:00;80639.16;;;9.75;72.78
62680;BME280;68213;40.528;44.712;2023-05-31T02:24:01;80637.13;;;9.74;72.97
62680;BME280;68213;40.528;44.712;2023-05-31T02:25:01;80631.41;;;9.77;72.82
62680;BME280;68213;40.528;44.712;2023-05-31T02:26:02;80642.00;;;9.79;72.91
62680;BME280;68213;40.528;44.712;2023-05-31T02:27:05;80651.25;;;9.80;73.08
62680;BME280;68213;40.528;44.712;2023-05-31T02:28:06;80639.63;;;9.83;72.61
62680;BME280;68213;40.528;44.712;2023-05-31T02:29:07;80639.19;;;9.87;72.48
62680;BME280;68213;40.528;44.712;2023-05-31T02:30:08;80638.25;;;9.82;72.89
62680;BME280;68213;40.528;44.712;2023-05-31T02:31:09;80644.44;;;9.87;73.04
62680;BME280;68213;40.528;44.712;2023-05-31T02:32:10;80639.84;;;9.88;72.99
62680;BME280;68213;40.528;44.712;2023-05-31T02:33:11;80643.84;;;9.89;72.83
62680;BME280;68213;40.528;44.712;2023-05-31T02:34:12;80643.97;;;9.91;72.87
62680;BME280;68213;40.528;44.712;2023-05-31T02:35:12;80646.03;;;9.92;72.97
62680;BME280;68213;40.528;44.712;2023-05-31T02:36:13;80646.03;;;9.92;73.11
62680;BME280;68213;40.528;44.712;2023-05-31T02:37:14;80646.03;;;9.92;73.19
62680;BME280;68213;40.528;44.712;2023-05-31T02:38:14;80650.16;;;9.95;73.34
62680;BME280;68213;40.528;44.712;2023-05-31T02:39:15;80646.94;;;9.97;73.20
62680;BME280;68213;40.528;44.712;2023-05-31T02:40:16;80649.69;;;9.99;73.07
62680;BME280;68213;40.528;44.712;2023-05-31T02:41:16;80643.06;;;9.98;73.29
62680;BME280;68213;40.528;44.712;2023-05-31T02:42:17;80648.44;;;10.00;73.17
62680;BME280;68213;40.528;44.712;2023-05-31T02:43:18;80642.03;;;10.03;72.92
62680;BME280;68213;40.528;44.712;2023-05-31T02:44:18;80640.78;;;10.04;72.87
62680;BME280;68213;40.528;44.712;2023-05-31T02:45:19;80636.78;;;10.03;72.84
62680;BME280;68213;40.528;44.712;2023-05-31T02:46:23;80648.91;;;10.08;72.93
62680;BME280;68213;40.528;44.712;2023-05-31T02:47:24;80638.50;;;10.10;72.96
62680;BME280;68213;40.528;44.712;2023-05-31T02:48:24;80642.38;;;10.09;72.89
62680;BME280;68213;40.528;44.712;2023-05-31T02:49:25;80645.69;;;10.10;73.05
62680;BME280;68213;40.528;44.712;2023-05-31T02:50:26;80642.28;;;10.07;73.44
62680;BME280;68213;40.528;44.712;2023-05-31T02:51:26;80640.31;;;9.96;74.27
62680;BME280;68213;40.528;44.712;2023-05-31T02:52:27;80641.34;;;9.91;74.40
62680;BME280;68213;40.528;44.712;2023-05-31T02:53:28;80643.06;;;9.98;73.90
62680;BME280;68213;40.528;44.712;2023-05-31T02:54:33;80614.50;;;9.80;73.88
62680;BME280;68213;40.528;44.712;2023-05-31T02:55:35;80630.16;;;9.90;74.54
62680;BME280;68213;40.528;44.712;2023-05-31T02:56:37;80642.50;;;9.99;74.24
62680;BME280;68213;40.528;44.712;2023-05-31T02:57:38;80633.47;;;10.03;74.25
62680;BME280;68213;40.528;44.712;2023-05-31T02:58:39;80639.19;;;10.11;73.76
62680;BME280;68213;40.528;44.712;2023-05-31T02:59:43;80640.78;;;10.16;73.57
62680;BME280;68213;40.528;44.712;2023-05-31T03:00:44;80632.44;;;10.20;73.35
62680;BME280;68213;40.528;44.712;2023-05-31T03:01:44;80635.31;;;10.24;73.30
62680;BME280;68213;40.528;44.712;2023-05-31T03:02:45;80638.25;;;10.30;73.03
62680;BME280;68213;40.528;44.712;2023-05-31T03:03:46;80645.69;;;10.34;73.07
62680;BME280;68213;40.528;44.712;2023-05-31T03:04:46;80639.19;;;10.35;73.17
62680;BME280;68213;40.528;44.712;2023-05-31T03:05:47;80644.22;;;10.42;73.11
62680;BME280;68213;40.528;44.712;2023-05-31T03:06:50;80634.94;;;10.41;72.90
62680;BME280;68213;40.528;44.712;2023-05-31T03:07:51;80643.97;;;10.50;72.97
62680;BME280;68213;40.528;44.712;2023-05-31T03:08:51;80638.94;;;10.54;72.97
62680;BME280;68213;40.528;44.712;2023-05-31T03:09:52;80639.84;;;10.59;72.41
62680;BME280;68213;40.528;44.712;2023-05-31T03:10:52;80638.25;;;10.54;72.68
62680;BME280;68213;40.528;44.712;2023-05-31T03:11:53;80641.53;;;10.66;73.39
62680;BME280;68213;40.528;44.712;2023-05-31T03:12:54;80586.19;;;10.26;72.40
62680;BME280;68213;40.528;44.712;2023-05-31T03:13:54;80640.94;;;10.79;71.92
62680;BME280;68213;40.528;44.712;2023-05-31T03:14:55;80638.03;;;10.87;71.21
62680;BME280;68213;40.528;44.712;2023-05-31T03:15:56;80642.97;;;10.93;71.05
62680;BME280;68213;40.528;44.712;2023-05-31T03:16:59;80648.53;;;10.99;71.69
62680;BME280;68213;40.528;44.712;2023-05-31T03:18:02;80645.78;;;11.09;71.17
62680;BME280;68213;40.528;44.712;2023-05-31T03:19:03;80626.34;;;11.02;70.72
62680;BME280;68213;40.528;44.712;2023-05-31T03:20:07;80649.16;;;11.23;70.62
62680;BME280;68213;40.528;44.712;2023-05-31T03:21:10;80653.00;;;11.34;69.97
62680;BME280;68213;40.528;44.712;2023-05-31T03:22:13;80645.53;;;11.42;69.51
62680;BME280;68213;40.528;44.712;2023-05-31T03:23:14;80644.00;;;11.51;69.88
62680;BME280;68213;40.528;44.712;2023-05-31T03:24:15;80630.38;;;11.55;70.32
62680;BME280;68213;40.528;44.712;2023-05-31T03:25:16;80645.31;;;11.64;70.25
62680;BME280;68213;40.528;44.712;2023-05-31T03:26:16;80642.88;;;11.68;70.29
62680;BME280;68213;40.528;44.712;2023-05-31T03:27:17;80646.03;;;11.79;69.97
62680;BME280;68213;40.528;44.712;2023-05-31T03:28:18;80644.97;;;11.84;69.83
62680;BME280;68213;40.528;44.712;2023-05-31T03:29:19;80649.16;;;11.89;70.98
62680;BME280;68213;40.528;44.712;2023-05-31T03:30:19;80648.22;;;11.96;71.01
62680;BME280;68213;40.528;44.712;2023-05-31T03:31:20;80646.50;;;12.01;70.45
62680;BME280;68213;40.528;44.712;2023-05-31T03:32:20;80647.50;;;12.08;70.40
62680;BME280;68213;40.528;44.712;2023-05-31T03:33:21;80647.91;;;12.16;70.14
62680;BME280;68213;40.528;44.712;2023-05-31T03:34:23;80656.22;;;12.24;71.35
62680;BME280;68213;40.528;44.712;2023-05-31T03:35:24;80656.50;;;12.30;71.61
62680;BME280;68213;40.528;44.712;2023-05-31T03:36:25;80657.28;;;12.33;69.51
62680;BME280;68213;40.528;44.712;2023-05-31T03:37:26;80650.25;;;12.37;69.20
62680;BME280;68213;40.528;44.712;2023-05-31T03:38:26;80654.34;;;12.41;69.32
62680;BME280;68213;40.528;44.712;2023-05-31T03:39:27;80644.69;;;12.45;68.71
62680;BME280;68213;40.528;44.712;2023-05-31T03:40:28;80652.41;;;12.41;69.74
62680;BME280;68213;40.528;44.712;2023-05-31T03:41:28;80638.25;;;12.48;69.73
62680;BME280;68213;40.528;44.712;2023-05-31T03:42:30;80644.69;;;12.45;69.95
62680;BME280;68213;40.528;44.712;2023-05-31T03:43:31;80643.91;;;12.43;70.70
62680;BME280;68213;40.528;44.712;2023-05-31T03:44:32;80644.69;;;12.45;70.26
62680;BME280;68213;40.528;44.712;2023-05-31T03:45:33;80647.13;;;12.55;70.18
62680;BME280;68213;40.528;44.712;2023-05-31T03:46:33;80646.63;;;12.59;69.83
62680;BME280;68213;40.528;44.712;2023-05-31T03:47:36;80647.34;;;12.59;70.15
62680;BME280;68213;40.528;44.712;2023-05-31T03:48:36;80654.16;;;12.64;70.52
62680;BME280;68213;40.528;44.712;2023-05-31T03:49:37;80651.63;;;12.66;70.05
62680;BME280;68213;40.528;44.712;2023-05-31T03:50:39;80646.38;;;12.66;69.70
62680;BME280;68213;40.528;44.712;2023-05-31T03:51:41;80655.06;;;12.69;68.95
62680;BME280;68213;40.528;44.712;2023-05-31T03:52:41;80651.31;;;12.74;68.78
62680;BME280;68213;40.528;44.712;2023-05-31T03:53:42;80661.38;;;12.78;67.95
62680;BME280;68213;40.528;44.712;2023-05-31T03:54:42;80649.56;;;12.79;67.89
62680;BME280;68213;40.528;44.712;2023-05-31T03:55:43;80656.50;;;12.86;68.03
62680;BME280;68213;40.528;44.712;2023-05-31T03:56:44;80657.88;;;12.87;67.21
62680;BME280;68213;40.528;44.712;2023-05-31T03:57:44;80661.00;;;12.97;67.62
62680;BME280;68213;40.528;44.712;2023-05-31T03:58:47;80662.06;;;12.92;68.96
62680;BME280;68213;40.528;44.712;2023-05-31T03:59:48;80660.78;;;12.93;69.90
62680;BME280;68213;40.528;44.712;2023-05-31T04:00:49;80652.81;;;12.91;69.40
62680;BME280;68213;40.528;44.712;2023-05-31T04:01:49;80662.00;;;12.90;69.52
62680;BME280;68213;40.528;44.712;2023-05-31T04:02:51;80662.16;;;12.94;69.58
62680;BME280;68213;40.528;44.712;2023-05-31T04:03:52;80665.91;;;12.89;69.76
62680;BME280;68213;40.528;44.712;2023-05-31T04:04:52;80661.38;;;12.78;70.44
62680;BME280;68213;40.528;44.712;2023-05-31T04:05:55;80661.09;;;12.85;70.58
62680;BME280;68213;40.528;44.712;2023-05-31T04:06:55;80662.00;;;12.90;70.70
62680;BME280;68213;40.528;44.712;2023-05-31T04:07:57;80662.75;;;12.79;70.17
62680;BME280;68213;40.528;44.712;2023-05-31T04:08:59;80633.28;;;12.68;70.33
62680;BME280;68213;40.528;44.712;2023-05-31T04:10:00;80660.03;;;12.77;70.71
62680;BME280;68213;40.528;44.712;2023-05-31T04:11:04;80662.28;;;12.82;71.00
62680;BME280;68213;40.528;44.712;2023-05-31T04:12:05;80667.94;;;12.91;70.29
62680;BME280;68213;40.528;44.712;2023-05-31T04:13:06;80669.50;;;12.96;70.55
62680;BME280;68213;40.528;44.712;2023-05-31T04:14:07;80671.66;;;12.85;70.51
62680;BME280;68213;40.528;44.712;2023-05-31T04:15:07;80667.66;;;12.98;70.59
62680;BME280;68213;40.528;44.712;2023-05-31T04:16:08;80672.81;;;13.10;70.17
62680;BME280;68213;40.528;44.712;2023-05-31T04:17:09;80673.66;;;13.15;69.68
62680;BME280;68213;40.528;44.712;2023-05-31T04:18:09;80675.63;;;13.14;68.15
62680;BME280;68213;40.528;44.712;2023-05-31T04:19:10;80671.41;;;13.23;67.94
62680;BME280;68213;40.528;44.712;2023-05-31T04:20:12;80669.94;;;13.34;67.47
62680;BME280;68213;40.528;44.712;2023-05-31T04:21:12;80671.69;;;13.43;66.59
62680;BME280;68213;40.528;44.712;2023-05-31T04:22:13;80664.47;;;13.44;67.27
62680;BME280;68213;40.528;44.712;2023-05-31T04:23:14;80668.66;;;13.49;66.97
62680;BME280;68213;40.528;44.712;2023-05-31T04:24:14;80671.03;;;13.43;66.90
62680;BME280;68213;40.528;44.712;2023-05-31T04:25:15;80662.13;;;13.50;66.89
62680;BME280;68213;40.528;44.712;2023-05-31T04:26:18;80668.06;;;13.51;67.12
62680;BME280;68213;40.528;44.712;2023-05-31T04:27:19;80666.41;;;13.57;67.56
62680;BME280;68213;40.528;44.712;2023-05-31T04:28:20;80662.19;;;13.52;67.75
62680;BME280;68213;40.528;44.712;2023-05-31T04:29:23;80657.09;;;13.56;67.58
62680;BME280;68213;40.528;44.712;2023-05-31T04:30:26;80646.66;;;13.44;67.56
62680;BME280;68213;40.528;44.712;2023-05-31T04:31:27;80657.19;;;13.58;68.95
62680;BME280;68213;40.528;44.712;2023-05-31T04:32:32;80665.13;;;13.58;68.72
62680;BME280;68213;40.528;44.712;2023-05-31T04:33:34;80665.03;;;13.56;68.92
62680;BME280;68213;40.528;44.712;2023-05-31T04:34:35;80658.38;;;13.55;68.40
62680;BME280;68213;40.528;44.712;2023-05-31T04:35:37;80659.19;;;13.44;67.97
62680;BME280;68213;40.528;44.712;2023-05-31T04:36:37;80652.16;;;13.35;68.65
62680;BME280;68213;40.528;44.712;2023-05-31T04:37:39;80661.13;;;13.29;68.90
62680;BME280;68213;40.528;44.712;2023-05-31T04:38:42;80660.63;;;13.33;68.69
62680;BME280;68213;40.528;44.712;2023-05-31T04:39:43;80660.56;;;13.17;69.00
62680;BME280;68213;40.528;44.712;2023-05-31T04:40:44;80658.53;;;13.15;68.90
62680;BME280;68213;40.528;44.712;2023-05-31T04:41:44;80658.75;;;13.06;67.74
62680;BME280;68213;40.528;44.712;2023-05-31T04:42:45;80659.03;;;13.12;67.22
62680;BME280;68213;40.528;44.712;2023-05-31T04:43:46;80653.16;;;12.99;67.92
62680;BME280;68213;40.528;44.712;2023-05-31T04:44:47;80657.50;;;12.93;68.14
62680;BME280;68213;40.528;44.712;2023-05-31T04:45:49;80657.00;;;12.96;68.08
62680;BME280;68213;40.528;44.712;2023-05-31T04:46:51;80659.91;;;13.02;67.19
62680;BME280;68213;40.528;44.712;2023-05-31T04:47:52;80656.59;;;13.02;67.98
62680;BME280;68213;40.528;44.712;2023-05-31T04:48:52;80656.88;;;12.94;67.64
62680;BME280;68213;40.528;44.712;2023-05-31T04:49:56;80652.38;;;12.97;67.92
62680;BME280;68213;40.528;44.712;2023-05-31T04:51:00;80655.06;;;12.83;67.67
62680;BME280;68213;40.528;44.712;2023-05-31T04:52:00;80652.31;;;12.95;67.49
62680;BME280;68213;40.528;44.712;2023-05-31T04:53:02;80645.84;;;12.98;67.06
62680;BME280;68213;40.528;44.712;2023-05-31T04:54:03;80651.78;;;13.12;66.92
62680;BME280;68213;40.528;44.712;2023-05-31T04:55:06;80654.91;;;13.09;67.48
62680;BME280;68213;40.528;44.712;2023-05-31T04:56:07;80656.50;;;13.14;67.61
62680;BME280;68213;40.528;44.712;2023-05-31T04:57:10;80651.00;;;13.10;67.45
62680;BME280;68213;40.528;44.712;2023-05-31T04:58:10;80661.78;;;13.14;68.14
62680;BME280;68213;40.528;44.712;2023-05-31T04:59:11;80658.53;;;13.15;66.71
62680;BME280;68213;40.528;44.712;2023-05-31T05:00:12;80656.19;;;13.22;66.37
62680;BME280;68213;40.528;44.712;2023-05-31T05:01:16;80659.69;;;13.26;65.98
62680;BME280;68213;40.528;44.712;2023-05-31T05:02:18;80654.78;;;13.35;65.96
62680;BME280;68213;40.528;44.712;2023-05-31T05:03:19;80657.50;;;13.37;66.04
62680;BME280;68213;40.528;44.712;2023-05-31T05:04:20;80653.72;;;13.40;66.02
62680;BME280;68213;40.528;44.712;2023-05-31T05:05:22;80653.22;;;13.43;63.57
62680;BME280;68213;40.528;44.712;2023-05-31T05:06:23;80655.47;;;13.49;63.97
62680;BME280;68213;40.528;44.712;2023-05-31T05:07:25;80655.81;;;13.57;63.51
62680;BME280;68213;40.528;44.712;2023-05-31T05:08:25;80649.53;;;13.64;63.38
62680;BME280;68213;40.528;44.712;2023-05-31T05:09:26;80651.25;;;13.74;63.57
62680;BME280;68213;40.528;44.712;2023-05-31T05:10:27;80647.16;;;13.71;63.86
62680;BME280;68213;40.528;44.712;2023-05-31T05:11:27;80644.63;;;13.73;62.21
62680;BME280;68213;40.528;44.712;2023-05-31T05:12:29;80640.69;;;13.74;62.88
62680;BME280;68213;40.528;44.712;2023-05-31T05:13:29;80637.47;;;13.75;62.92
62680;BME280;68213;40.528;44.712;2023-05-31T05:14:31;80638.75;;;13.74;63.69
62680;BME280;68213;40.528;44.712;2023-05-31T05:15:31;80636.28;;;13.78;63.47
62680;BME280;68213;40.528;44.712;2023-05-31T05:16:32;80636.41;;;13.67;64.22
62680;BME280;68213;40.528;44.712;2023-05-31T05:17:34;80629.78;;;13.66;64.95
62680;BME280;68213;40.528;44.712;2023-05-31T05:18:36;80629.94;;;13.70;64.63
62680;BME280;68213;40.528;44.712;2023-05-31T05:19:36;80631.69;;;13.79;64.28
62680;BME280;68213;40.528;44.712;2023-05-31T05:20:37;80627.84;;;13.82;64.05
62680;BME280;68213;40.528;44.712;2023-05-31T05:21:39;80631.28;;;13.85;63.45
62680;BME280;68213;40.528;44.712;2023-05-31T05:22:41;80634.94;;;13.93;64.19
62680;BME280;68213;40.528;44.712;2023-05-31T05:23:43;80631.09;;;13.96;62.72
62680;BME280;68213;40.528;44.712;2023-05-31T05:24:45;80637.59;;;14.09;62.68
62680;BME280;68213;40.528;44.712;2023-05-31T05:25:45;80637.50;;;14.07;62.72
62680;BME280;68213;40.528;44.712;2023-05-31T05:26:46;80632.56;;;14.16;62.74
62680;BME280;68213;40.528;44.712;2023-05-31T05:27:47;80631.56;;;14.07;63.16
62680;BME280;68213;40.528;44.712;2023-05-31T05:28:48;80634.47;;;14.13;62.67
62680;BME280;68213;40.528;44.712;2023-05-31T05:29:49;80627.22;;;14.30;62.49
62680;BME280;68213;40.528;44.712;2023-05-31T05:30:50;80630.38;;;14.42;58.87
62680;BME280;68213;40.528;44.712;2023-05-31T05:31:51;80632.94;;;14.56;56.54
62680;BME280;68213;40.528;44.712;2023-05-31T05:32:51;80629.19;;;14.61;56.58